createdAt,value
2019-02-19T04:01:28.389Z,22.20
2019-02-19T04:03:57.005Z,26.67
2019-02-19T04:06:25.578Z,24.07
2019-02-19T04:08:54.166Z,26.73
2019-02-19T04:11:22.762Z,24.37
2019-02-19T04:13:51.338Z,22.87
2019-02-19T04:16:21.468Z,22.20
2019-02-19T04:18:50.206Z,24.47
2019-02-19T04:21:18.777Z,24.00
2019-02-19T04:23:47.381Z,23.27
2019-02-19T04:26:15.967Z,25.70
2019-02-19T04:28:44.617Z,25.83
2019-02-19T04:31:13.542Z,25.63
2019-02-19T04:33:42.409Z,23.20
2019-02-19T04:36:11.036Z,22.33
2019-02-19T04:38:39.608Z,22.93
2019-02-19T04:41:08.309Z,21.53
2019-02-19T04:43:36.886Z,20.87
2019-02-19T04:46:05.465Z,19.57
2019-02-19T04:48:34.066Z,23.67
2019-02-19T04:51:02.646Z,22.60
2019-02-19T04:53:31.242Z,23.73
2019-02-19T04:56:00.166Z,23.67
2019-02-19T04:58:28.745Z,26.17
2019-02-19T05:00:57.358Z,26.70
2019-02-19T05:03:26.233Z,22.67
2019-02-19T05:05:54.852Z,21.80
2019-02-19T05:08:23.429Z,20.07
2019-02-19T05:10:52.008Z,22.90
2019-02-19T05:13:20.606Z,24.00
2019-02-19T05:15:49.190Z,23.00
2019-02-19T05:18:17.766Z,24.10
2019-02-19T05:20:46.380Z,23.37
2019-02-19T05:23:14.949Z,26.33
2019-02-19T05:25:43.550Z,23.53
2019-02-19T05:28:12.511Z,25.23
2019-02-19T05:30:43.045Z,25.47
2019-02-19T05:33:11.449Z,25.63
2019-02-19T05:35:40.098Z,25.60
2019-02-19T05:38:09.183Z,22.93
2019-02-19T05:40:38.126Z,24.50
2019-02-19T05:43:06.725Z,25.53
2019-02-19T05:45:35.306Z,24.07
2019-02-19T05:48:05.311Z,23.73
2019-02-19T05:50:34.098Z,23.03
2019-02-19T05:53:02.681Z,24.13
2019-02-19T05:55:31.594Z,24.27
2019-02-19T05:58:00.197Z,23.43
2019-02-19T06:00:28.779Z,20.00
2019-02-19T06:02:57.357Z,20.90
2019-02-19T06:05:25.961Z,21.17
2019-02-19T06:07:54.834Z,24.20
2019-02-19T06:10:24.388Z,25.83
2019-02-19T06:12:53.001Z,27.00
2019-02-19T06:15:21.581Z,21.90
2019-02-19T06:17:50.493Z,22.37
2019-02-19T06:20:19.092Z,23.80
2019-02-19T06:22:47.672Z,21.47
2019-02-19T06:25:16.247Z,23.83
2019-02-19T06:27:44.850Z,24.00
2019-02-19T06:30:13.425Z,22.53
2019-02-19T06:32:42.073Z,28.50
2019-02-19T06:35:10.648Z,23.70
2019-02-19T06:37:39.233Z,26.23
2019-02-19T06:40:09.481Z,22.20
2019-02-19T06:42:38.062Z,22.47
2019-02-19T06:45:06.681Z,25.33
2019-02-19T06:47:35.263Z,30.43
2019-02-19T06:50:04.108Z,26.60
2019-02-19T06:52:32.693Z,25.03
2019-02-19T06:55:01.278Z,25.83
2019-02-19T06:57:29.877Z,26.60
2019-02-19T06:59:58.457Z,21.67
2019-02-19T07:02:58.401Z,25.77
2019-02-19T07:05:27.050Z,25.33
2019-02-19T07:07:55.625Z,25.70
2019-02-19T07:10:24.223Z,24.87
2019-02-19T07:12:52.798Z,24.40
2019-02-19T07:15:21.406Z,25.43
2019-02-19T07:17:49.977Z,26.37
2019-02-19T07:20:18.555Z,25.37
2019-02-19T07:22:47.154Z,29.97
2019-02-19T07:25:15.721Z,26.40
2019-02-19T07:27:44.611Z,24.10
2019-02-19T07:30:13.202Z,27.30
2019-02-19T07:32:41.780Z,28.17
2019-02-19T07:35:10.397Z,29.50
2019-02-19T07:37:39.340Z,30.97
2019-02-19T07:40:07.965Z,29.00
2019-02-19T07:42:36.537Z,26.13
2019-02-19T07:45:05.226Z,24.57
2019-02-19T07:47:33.826Z,27.27
2019-02-19T07:50:02.402Z,28.97
2019-02-19T07:52:30.997Z,27.23
2019-02-19T07:54:59.574Z,28.63
2019-02-19T07:57:28.145Z,27.03
2019-02-19T07:59:56.737Z,29.63
2019-02-19T08:02:25.316Z,25.93
2019-02-19T08:04:53.935Z,22.73
2019-02-19T08:07:22.494Z,24.30
2019-02-19T08:09:51.071Z,23.13
2019-02-19T08:12:19.738Z,20.10
2019-02-19T08:14:48.389Z,23.70
2019-02-19T08:17:16.995Z,19.27
2019-02-19T08:19:45.574Z,23.53
2019-02-19T08:22:14.160Z,21.97
2019-02-19T08:24:42.758Z,21.93
2019-02-19T08:27:11.333Z,22.60
2019-02-19T08:29:39.937Z,21.23
2019-02-19T08:32:08.869Z,24.37
2019-02-19T08:34:37.479Z,22.60
2019-02-19T08:37:06.077Z,23.23
2019-02-19T08:39:34.653Z,18.30
2019-02-19T08:42:03.273Z,22.00
2019-02-19T08:44:31.857Z,19.83
2019-02-19T08:47:00.434Z,23.07
2019-02-19T08:49:29.041Z,22.10
2019-02-19T08:51:57.617Z,19.27
2019-02-19T08:54:26.225Z,20.43
2019-02-19T08:56:54.805Z,20.27
2019-02-19T08:59:23.381Z,19.30
2019-02-19T09:01:51.983Z,20.13
2019-02-19T09:04:20.561Z,19.03
2019-02-19T09:06:49.161Z,23.83
2019-02-19T09:09:17.741Z,21.13
2019-02-19T09:11:46.322Z,20.40
2019-02-19T09:14:15.203Z,24.00
2019-02-19T09:16:43.781Z,23.93
2019-02-19T09:19:12.398Z,21.17
2019-02-19T09:21:40.969Z,20.37
2019-02-19T09:24:09.906Z,19.90
2019-02-19T09:26:38.621Z,26.80
2019-02-19T09:29:07.200Z,24.77
2019-02-19T09:31:35.801Z,22.90
2019-02-19T09:34:04.388Z,21.13
2019-02-19T09:36:32.990Z,20.67
2019-02-19T09:39:01.591Z,19.80
2019-02-19T09:41:30.164Z,19.37
2019-02-19T09:43:59.016Z,20.87
2019-02-19T09:46:27.590Z,24.03
2019-02-19T09:48:56.165Z,21.17
2019-02-19T09:51:25.087Z,24.87
2019-02-19T09:53:53.665Z,26.00
2019-02-19T09:56:22.274Z,20.23
2019-02-19T09:58:50.872Z,22.00
2019-02-19T10:01:19.429Z,17.10
2019-02-19T10:03:48.298Z,19.03
2019-02-19T10:06:16.882Z,19.10
2019-02-19T10:08:45.498Z,21.30
2019-02-19T10:11:14.074Z,20.93
2019-02-19T10:13:42.653Z,20.30
2019-02-19T10:16:11.260Z,15.33
2019-02-19T10:18:39.838Z,14.93
2019-02-19T10:21:08.439Z,14.87
2019-02-19T10:23:37.018Z,16.73
2019-02-19T10:26:05.594Z,13.60
2019-02-19T10:28:34.191Z,15.45
2019-02-19T10:31:02.770Z,16.00
2019-02-19T10:33:31.399Z,15.75
2019-02-19T10:35:59.977Z,16.87
2019-02-19T10:38:28.669Z,13.68
2019-02-19T10:40:57.261Z,16.07
2019-02-19T10:43:25.847Z,15.10
2019-02-19T10:45:54.455Z,14.58
2019-02-19T10:48:23.024Z,15.50
2019-02-19T10:50:51.610Z,19.67
2019-02-19T10:53:20.206Z,15.70
2019-02-19T10:55:48.780Z,15.93
2019-02-19T10:58:22.964Z,14.93
2019-02-19T11:00:47.681Z,17.57
2019-02-19T11:03:16.267Z,16.23
2019-02-19T11:05:44.863Z,16.17
2019-02-19T11:08:13.433Z,19.67
2019-02-19T11:10:42.046Z,15.07
2019-02-19T11:13:10.625Z,17.03
2019-02-19T11:15:39.568Z,14.17
2019-02-19T11:18:08.165Z,15.63
2019-02-19T11:20:36.742Z,17.50
2019-02-19T11:23:05.533Z,16.40
2019-02-19T11:25:34.118Z,15.53
2019-02-19T11:28:02.689Z,16.93
2019-02-19T11:30:31.303Z,15.50
2019-02-19T11:32:59.873Z,14.20
2019-02-19T11:35:28.485Z,14.90
2019-02-19T11:37:57.081Z,15.50
2019-02-19T11:40:25.725Z,14.23
2019-02-19T11:42:54.325Z,12.97
2019-02-19T11:45:22.901Z,14.97
2019-02-19T11:47:51.575Z,16.90
2019-02-19T11:50:20.246Z,16.47
2019-02-19T11:52:48.825Z,14.33
2019-02-19T11:55:17.471Z,14.40
2019-02-19T11:57:46.049Z,13.70
2019-02-19T12:00:17.686Z,14.13
2019-02-19T12:02:46.261Z,17.80
2019-02-19T12:05:14.844Z,14.17
2019-02-19T12:07:43.441Z,15.47
2019-02-19T12:10:12.221Z,15.73
2019-02-19T12:12:41.002Z,17.67
2019-02-19T12:15:09.585Z,16.50
2019-02-19T12:17:38.154Z,13.97
2019-02-19T12:20:06.820Z,14.73
2019-02-19T12:22:35.393Z,15.43
2019-02-19T12:25:04.021Z,15.03
2019-02-19T12:27:32.597Z,13.67
2019-02-19T12:30:01.181Z,14.27
2019-02-19T12:32:29.781Z,11.17
2019-02-19T12:34:58.355Z,15.80
2019-02-19T12:37:27.041Z,14.10
2019-02-19T12:39:55.610Z,12.67
2019-02-19T12:42:24.233Z,9.47
2019-02-19T12:44:52.826Z,9.90
2019-02-19T12:47:21.398Z,9.63
2019-02-19T12:49:50.007Z,10.77
2019-02-19T12:52:18.577Z,10.40
2019-02-19T12:54:47.153Z,11.97
2019-02-19T12:57:15.745Z,11.00
2019-02-19T12:59:44.322Z,12.50
2019-02-19T13:02:12.917Z,11.13
2019-02-19T13:04:41.802Z,14.43
2019-02-19T13:07:10.650Z,12.37
2019-02-19T13:09:39.242Z,12.47
2019-02-19T13:12:07.819Z,11.03
2019-02-19T13:14:36.778Z,10.60
2019-02-19T13:17:05.649Z,10.73
2019-02-19T13:19:34.237Z,15.43
2019-02-19T13:22:02.839Z,11.20
2019-02-19T13:24:31.509Z,14.37
2019-02-19T13:27:00.116Z,13.70
2019-02-19T13:29:28.685Z,11.47
2019-02-19T13:31:57.533Z,8.83
2019-02-19T13:34:26.132Z,13.90
2019-02-19T13:36:54.709Z,11.00
2019-02-19T13:39:23.312Z,11.40
2019-02-19T13:41:51.889Z,9.67
2019-02-19T13:44:20.497Z,11.23
2019-02-19T13:46:49.102Z,12.93
2019-02-19T13:49:17.677Z,10.87
2019-02-19T13:51:46.747Z,14.83
2019-02-19T13:54:25.729Z,13.00
2019-02-19T13:56:54.329Z,11.13
2019-02-19T13:59:22.924Z,12.60
2019-02-19T14:01:51.517Z,10.97
2019-02-19T14:04:20.118Z,8.87
2019-02-19T14:06:48.770Z,12.10
2019-02-19T14:09:17.378Z,10.03
2019-02-19T14:11:46.058Z,9.73
2019-02-19T14:14:26.658Z,12.57
2019-02-19T14:17:01.411Z,11.37
2019-02-19T14:19:55.145Z,13.23
2019-02-19T14:22:43.809Z,15.57
2019-02-19T14:25:31.516Z,11.00
2019-02-19T14:28:19.178Z,10.70
2019-02-19T14:31:06.860Z,11.90
2019-02-19T14:33:51.898Z,10.63
2019-02-19T14:36:32.481Z,10.70
2019-02-19T14:39:18.909Z,14.97
2019-02-19T14:42:12.709Z,14.17
2019-02-19T14:44:51.049Z,11.53
2019-02-19T14:47:38.702Z,12.50
2019-02-19T14:50:25.478Z,10.57
2019-02-19T14:53:13.180Z,14.33
2019-02-19T14:55:49.792Z,11.70
2019-02-19T14:58:43.586Z,10.37
2019-02-19T15:01:34.333Z,14.80
2019-02-19T15:04:22.168Z,14.90
2019-02-19T15:07:01.957Z,12.03
2019-02-19T15:09:58.753Z,13.37
2019-02-19T15:12:49.402Z,14.20
2019-02-19T15:15:38.866Z,13.17
2019-02-19T15:18:32.897Z,18.17
2019-02-19T15:21:12.785Z,17.30
2019-02-19T15:24:00.417Z,10.73
2019-02-19T15:26:55.645Z,14.40
2019-02-19T15:29:52.778Z,13.13
2019-02-19T15:32:52.941Z,13.23
2019-02-19T15:35:49.647Z,13.13
2019-02-19T15:38:40.289Z,14.73
2019-02-19T15:41:37.144Z,14.37
2019-02-19T15:44:20.880Z,14.60
2019-02-19T15:47:07.305Z,14.80
2019-02-19T15:49:50.284Z,16.20
2019-02-19T15:52:35.426Z,14.63
2019-02-19T15:55:32.430Z,15.23
2019-02-19T15:58:26.350Z,11.70
2019-02-19T16:01:23.279Z,17.27
2019-02-19T16:04:00.165Z,15.80
2019-02-19T16:06:47.527Z,18.63
2019-02-19T16:09:28.361Z,64.17
2019-02-19T16:12:14.850Z,27.57
2019-02-19T16:15:02.519Z,48.43
2019-02-19T16:17:52.954Z,25.03
2019-02-19T16:20:29.257Z,15.93
2019-02-19T16:23:18.771Z,20.07
2019-02-19T16:25:54.889Z,16.87
2019-02-19T16:28:41.325Z,14.57
2019-02-19T16:31:38.162Z,15.13
2019-02-19T16:34:22.310Z,15.60
2019-02-19T16:37:09.421Z,13.77
2019-02-19T16:39:56.118Z,16.50
2019-02-19T16:42:38.110Z,16.53
2019-02-19T16:45:20.911Z,15.53
2019-02-19T16:48:04.731Z,14.03
2019-02-19T16:50:54.252Z,15.03
2019-02-19T16:53:41.847Z,16.93
2019-02-19T16:56:32.438Z,13.07
2019-02-19T16:59:21.599Z,11.87
2019-02-19T17:02:12.754Z,11.70
2019-02-19T17:05:17.199Z,12.03
2019-02-19T17:07:51.647Z,11.40
2019-02-19T17:10:46.049Z,14.13
2019-02-19T17:13:25.713Z,12.70
2019-02-19T17:16:13.667Z,16.47
2019-02-19T17:19:08.861Z,14.10
2019-02-19T17:21:50.320Z,13.83
2019-02-19T17:24:33.905Z,18.07
2019-02-19T17:27:22.225Z,16.60
2019-02-19T17:30:08.810Z,12.80
2019-02-19T17:33:02.919Z,12.73
2019-02-19T17:35:53.153Z,14.10
2019-02-19T17:38:26.909Z,11.53
2019-02-19T17:41:07.401Z,14.67
2019-02-19T17:43:54.369Z,16.67
2019-02-19T17:46:40.921Z,14.20
2019-02-19T17:49:33.633Z,15.53
2019-02-19T17:52:24.341Z,14.87
2019-02-19T17:54:59.783Z,13.77
2019-02-19T17:57:38.530Z,13.90
2019-02-19T18:00:23.848Z,12.03
2019-02-19T18:03:00.487Z,14.33
2019-02-19T18:05:55.238Z,16.17
2019-02-19T18:08:32.664Z,12.50
2019-02-19T18:11:20.709Z,18.43
2019-02-19T18:14:17.874Z,16.73
2019-02-19T18:17:00.251Z,14.60
2019-02-19T18:19:29.201Z,17.90
2019-02-19T18:21:57.924Z,15.70
2019-02-19T18:24:26.529Z,15.20
2019-02-19T18:26:55.139Z,16.93
2019-02-19T18:29:23.714Z,21.63
2019-02-19T18:31:52.315Z,17.67
2019-02-19T18:34:20.914Z,26.47
2019-02-19T18:36:49.486Z,19.73
2019-02-19T18:39:18.098Z,21.27
2019-02-19T18:41:46.757Z,17.20
2019-02-19T18:44:15.410Z,18.47
2019-02-19T18:46:44.082Z,17.00
2019-02-19T18:49:12.978Z,18.97
2019-02-19T18:51:42.964Z,18.17
2019-02-19T18:54:11.581Z,14.73
2019-02-19T18:56:40.158Z,15.53
2019-02-19T18:59:09.154Z,17.73
2019-02-19T19:01:37.861Z,16.73
2019-02-19T19:04:06.631Z,15.63
2019-02-19T19:06:35.259Z,14.43
2019-02-19T19:09:05.018Z,14.87
2019-02-19T19:11:33.605Z,16.70
2019-02-19T19:14:02.274Z,13.03
2019-02-19T19:16:30.986Z,15.03
2019-02-19T19:18:59.594Z,16.13
2019-02-19T19:21:28.171Z,16.73
2019-02-19T19:23:57.106Z,19.07
2019-02-19T19:26:25.969Z,15.17
2019-02-19T19:28:54.625Z,14.90
2019-02-19T19:31:23.329Z,18.67
2019-02-19T19:33:51.909Z,15.70
2019-02-19T19:36:20.571Z,15.97
2019-02-19T19:38:49.186Z,16.60
2019-02-19T19:41:17.943Z,14.50
2019-02-19T19:43:46.552Z,17.93
2019-02-19T19:46:15.281Z,17.47
2019-02-19T19:48:45.902Z,14.60
2019-02-19T19:51:17.292Z,13.60
2019-02-19T19:53:44.726Z,16.67
2019-02-19T19:56:13.419Z,15.43
2019-02-19T19:58:42.002Z,17.50
2019-02-19T20:01:10.640Z,14.37
2019-02-19T20:03:39.482Z,15.60
2019-02-19T20:06:08.249Z,15.60
2019-02-19T20:08:36.983Z,13.97
2019-02-19T20:11:05.565Z,13.13
2019-02-19T20:13:34.539Z,17.60
2019-02-19T20:16:03.449Z,13.23
2019-02-19T20:18:38.939Z,13.67
2019-02-19T20:21:02.642Z,16.70
2019-02-19T20:23:31.322Z,15.93
2019-02-19T20:25:59.893Z,14.80
2019-02-19T20:28:28.498Z,14.27
2019-02-19T20:30:57.373Z,15.30
2019-02-19T20:33:25.979Z,14.80
2019-02-19T20:35:54.586Z,17.20
2019-02-19T20:38:23.168Z,17.03
2019-02-19T20:40:52.137Z,17.30
2019-02-19T20:43:20.802Z,19.27
2019-02-19T20:45:49.400Z,18.63
2019-02-19T20:48:17.976Z,16.00
2019-02-19T20:50:46.590Z,20.27
2019-02-19T20:53:15.243Z,19.40
2019-02-19T20:55:43.851Z,20.23
2019-02-19T20:58:12.446Z,18.27
2019-02-19T21:00:41.022Z,18.10
2019-02-19T21:03:09.634Z,16.83
2019-02-19T21:05:38.209Z,17.97
2019-02-19T21:08:06.781Z,17.40
2019-02-19T21:10:35.801Z,17.53
2019-02-19T21:13:04.722Z,19.73
2019-02-19T21:15:33.330Z,21.60
2019-02-19T21:18:02.427Z,18.00
2019-02-19T21:20:31.086Z,16.93
2019-02-19T21:22:59.682Z,20.87
2019-02-19T21:25:31.004Z,17.23
2019-02-19T21:27:58.973Z,19.67
2019-02-19T21:30:27.549Z,20.17
2019-02-19T21:32:56.981Z,27.33
2019-02-19T21:35:25.824Z,25.33
2019-02-19T21:37:54.402Z,20.03
2019-02-19T21:40:23.030Z,20.90
2019-02-19T21:42:51.602Z,18.33
2019-02-19T21:45:20.220Z,21.50
2019-02-19T21:47:49.094Z,21.17
2019-02-19T21:50:17.774Z,21.53
2019-02-19T21:52:46.385Z,20.93
2019-02-19T21:55:15.133Z,21.07
2019-02-19T21:57:43.706Z,22.17
2019-02-19T22:00:13.624Z,21.60
2019-02-19T22:02:42.201Z,18.37
2019-02-19T22:05:10.830Z,21.77
2019-02-19T22:07:39.402Z,20.23
2019-02-19T22:10:08.025Z,22.93
2019-02-19T22:12:36.626Z,20.43
2019-02-19T22:15:05.910Z,20.23
2019-02-19T22:17:34.478Z,22.17
2019-02-19T22:20:03.642Z,19.57
2019-02-19T22:22:33.602Z,24.83
2019-02-19T22:25:02.210Z,27.13
2019-02-19T22:27:30.781Z,24.53
2019-02-19T22:29:59.362Z,21.80
2019-02-19T22:32:27.957Z,21.73
2019-02-19T22:34:56.856Z,19.73
2019-02-19T22:37:25.448Z,22.13
2019-02-19T22:39:54.056Z,19.07
2019-02-19T22:42:22.719Z,17.53
2019-02-19T22:44:51.750Z,19.57
2019-02-19T22:47:20.378Z,17.33
2019-02-19T22:49:49.260Z,18.53
2019-02-19T22:52:17.834Z,19.83
2019-02-19T22:55:10.789Z,21.17
2019-02-19T22:57:40.529Z,18.20
2019-02-19T23:00:20.270Z,16.83
